createdAt,value
2018-02-08T00:01:29.440Z,55.68
2018-02-08T00:03:57.877Z,56.27
2018-02-08T00:06:26.280Z,57.87
2018-02-08T00:08:54.705Z,56.56
2018-02-08T00:11:23.142Z,57.59
2018-02-08T00:13:51.624Z,57.97
2018-02-08T00:16:20.021Z,57.89
2018-02-08T00:18:48.513Z,57.75
2018-02-08T00:21:16.909Z,58.58
2018-02-08T00:23:45.380Z,57.81
2018-02-08T00:26:13.847Z,58.01
2018-02-08T00:28:42.247Z,57.31
2018-02-08T00:31:10.649Z,57.73
2018-02-08T00:33:39.065Z,56.94
2018-02-08T00:36:07.468Z,57.20
2018-02-08T00:38:35.939Z,56.74
2018-02-08T00:41:04.365Z,57.96
2018-02-08T00:43:32.758Z,56.64
2018-02-08T00:46:01.187Z,57.28
2018-02-08T00:48:29.639Z,56.89
2018-02-08T00:50:58.114Z,58.00
2018-02-08T00:53:26.610Z,58.32
2018-02-08T00:55:55.031Z,57.68
2018-02-08T00:58:23.431Z,57.10
2018-02-08T01:00:51.843Z,57.18
2018-02-08T01:03:20.309Z,57.66
2018-02-08T01:05:48.710Z,57.70
2018-02-08T01:08:17.127Z,58.29
2018-02-08T01:10:45.545Z,58.09
2018-02-08T01:13:13.940Z,57.98
2018-02-08T01:15:42.425Z,59.09
2018-02-08T01:18:10.919Z,59.38
2018-02-08T01:20:39.332Z,59.85
2018-02-08T01:23:07.758Z,57.97
2018-02-08T01:25:36.187Z,58.25
2018-02-08T01:28:04.834Z,57.82
2018-02-08T01:30:33.334Z,58.06
2018-02-08T01:33:01.738Z,58.50
2018-02-08T01:35:30.138Z,56.08
2018-02-08T01:37:58.532Z,56.00
2018-02-08T01:40:27.090Z,57.40
2018-02-08T01:42:55.492Z,55.98
2018-02-08T01:45:23.902Z,56.28
2018-02-08T01:47:52.298Z,56.76
2018-02-08T01:50:20.702Z,56.22
2018-02-08T01:52:49.191Z,55.86
2018-02-08T01:55:17.590Z,57.82
2018-02-08T01:57:46.011Z,57.12
2018-02-08T02:00:14.419Z,57.52
2018-02-08T02:02:42.901Z,56.05
2018-02-08T02:05:11.380Z,56.16
2018-02-08T02:07:39.782Z,55.89
2018-02-08T02:10:08.180Z,54.71
2018-02-08T02:12:36.565Z,54.83
2018-02-08T02:15:05.119Z,54.03
2018-02-08T02:17:33.590Z,54.31
2018-02-08T02:20:02.004Z,54.94
2018-02-08T02:22:30.426Z,55.33
2018-02-08T02:24:58.834Z,54.92
2018-02-08T02:27:27.248Z,54.80
2018-02-08T02:29:55.697Z,55.35
2018-02-08T02:32:24.122Z,55.22
2018-02-08T02:34:52.672Z,54.50
2018-02-08T02:37:21.176Z,54.20
2018-02-08T02:39:49.563Z,54.53
2018-02-08T02:42:17.971Z,54.75
2018-02-08T02:44:46.387Z,54.26
2018-02-08T02:47:14.877Z,54.40
2018-02-08T02:49:43.295Z,55.92
2018-02-08T02:52:11.702Z,57.66
2018-02-08T02:54:40.115Z,57.37
2018-02-08T02:57:08.587Z,57.95
2018-02-08T02:59:37.035Z,57.38
2018-02-08T03:02:05.459Z,56.84
2018-02-08T03:04:33.946Z,58.40
2018-02-08T03:07:02.366Z,56.55
2018-02-08T03:09:30.775Z,57.47
2018-02-08T03:11:59.189Z,56.80
2018-02-08T03:14:27.586Z,55.53
2018-02-08T03:16:56.009Z,56.28
2018-02-08T03:19:24.414Z,56.01
2018-02-08T03:21:52.882Z,56.27
2018-02-08T03:24:21.292Z,56.98
2018-02-08T03:26:49.700Z,57.02
2018-02-08T03:29:18.120Z,58.54
2018-02-08T03:31:46.529Z,57.72
2018-02-08T03:34:14.969Z,56.30
2018-02-08T03:36:43.374Z,58.28
2018-02-08T03:39:11.915Z,57.85
2018-02-08T03:41:40.406Z,58.52
2018-02-08T03:44:08.820Z,58.36
2018-02-08T03:46:37.233Z,56.73
2018-02-08T03:49:05.634Z,56.38
2018-02-08T03:51:34.383Z,57.62
2018-02-08T03:54:02.799Z,57.52
2018-02-08T03:56:31.201Z,56.17
2018-02-08T03:58:59.673Z,55.59
2018-02-08T04:01:28.135Z,57.44
2018-02-08T04:03:56.562Z,56.33
2018-02-08T04:06:24.951Z,56.70
2018-02-08T04:08:53.393Z,56.68
2018-02-08T04:11:21.798Z,57.66
2018-02-08T04:13:50.266Z,56.90
2018-02-08T04:16:18.669Z,56.66
2018-02-08T04:18:47.224Z,55.45
2018-02-08T04:21:15.659Z,54.83
2018-02-08T04:23:44.098Z,55.39
2018-02-08T04:26:12.539Z,55.97
2018-02-08T04:28:40.943Z,55.94
2018-02-08T04:31:09.710Z,56.87
2018-02-08T04:33:38.099Z,56.30
2018-02-08T04:36:06.585Z,56.50
2018-02-08T04:38:46.876Z,55.93
2018-02-08T04:41:26.888Z,55.58
2018-02-08T04:47:07.653Z,56.83
2018-02-08T04:49:36.059Z,55.34
2018-02-08T04:52:04.484Z,56.20
2018-02-08T04:54:32.875Z,55.04
2018-02-08T04:57:01.647Z,55.05
2018-02-08T04:59:30.045Z,56.42
2018-02-08T05:02:01.769Z,56.41
2018-02-08T05:04:30.178Z,56.75
2018-02-08T05:06:58.594Z,55.98
2018-02-08T05:09:27.135Z,56.97
2018-02-08T05:11:55.556Z,55.49
2018-02-08T05:14:23.985Z,55.80
2018-02-08T05:16:52.438Z,55.49
2018-02-08T05:19:20.894Z,55.73
2018-02-08T05:21:49.300Z,56.16
2018-02-08T05:24:18.051Z,57.18
2018-02-08T05:26:46.465Z,56.37
2018-02-08T05:29:14.942Z,57.08
2018-02-08T05:31:44.316Z,56.21
2018-02-08T05:34:12.696Z,55.30
2018-02-08T05:36:41.066Z,55.06
2018-02-08T05:39:09.573Z,56.98
2018-02-08T05:41:37.993Z,56.52
2018-02-08T05:44:06.455Z,56.57
2018-02-08T05:46:34.874Z,57.86
2018-02-08T05:49:03.299Z,56.77
2018-02-08T05:51:31.756Z,55.83
2018-02-08T05:54:00.164Z,55.70
2018-02-08T05:56:28.587Z,56.62
2018-02-08T05:58:57.078Z,56.89
2018-02-08T06:01:25.518Z,56.52
2018-02-08T06:03:53.956Z,56.03
2018-02-08T06:06:22.807Z,56.03
2018-02-08T06:08:51.311Z,57.00
2018-02-08T06:11:19.701Z,56.40
2018-02-08T06:13:48.278Z,56.27
2018-02-08T06:16:16.693Z,56.49
2018-02-08T06:18:45.118Z,56.99
2018-02-08T06:21:13.587Z,56.04
2018-02-08T06:23:41.996Z,55.60
2018-02-08T06:26:10.416Z,55.99
2018-02-08T06:28:38.888Z,56.54
2018-02-08T06:31:07.299Z,55.62
2018-02-08T06:33:35.717Z,55.13
2018-02-08T06:36:04.106Z,55.03
2018-02-08T06:38:32.522Z,56.89
2018-02-08T06:41:01.171Z,56.83
2018-02-08T06:43:29.596Z,56.57
2018-02-08T06:45:58.009Z,57.20
2018-02-08T06:48:26.473Z,55.96
2018-02-08T06:50:54.891Z,56.19
2018-02-08T06:53:23.310Z,56.98
2018-02-08T06:55:51.764Z,57.04
2018-02-08T06:58:20.167Z,58.23
2018-02-08T07:00:48.577Z,57.32
2018-02-08T07:03:17.005Z,57.63
2018-02-08T07:05:45.511Z,57.31
2018-02-08T07:08:13.988Z,58.14
2018-02-08T07:10:42.411Z,56.91
2018-02-08T07:13:10.834Z,56.18
2018-02-08T07:15:39.251Z,57.76
2018-02-08T07:18:07.671Z,55.72
2018-02-08T07:20:36.152Z,57.22
2018-02-08T07:23:04.557Z,56.19
2018-02-08T07:25:33.049Z,56.69
2018-02-08T07:28:01.448Z,55.82
2018-02-08T07:30:29.854Z,55.39
2018-02-08T07:32:58.313Z,54.60
2018-02-08T07:35:26.723Z,54.90
2018-02-08T07:37:55.152Z,55.23
2018-02-08T07:40:23.576Z,55.74
2018-02-08T07:42:52.003Z,55.06
2018-02-08T07:45:20.495Z,55.14
2018-02-08T07:47:48.890Z,55.10
2018-02-08T07:50:17.324Z,54.55
2018-02-08T07:52:45.725Z,54.66
2018-02-08T07:55:14.135Z,53.90
2018-02-08T07:57:42.605Z,54.04
2018-02-08T08:00:11.026Z,54.24
2018-02-08T08:02:39.450Z,52.88
2018-02-08T08:05:07.859Z,52.71
2018-02-08T08:07:36.254Z,52.12
2018-02-08T08:10:05.140Z,51.07
2018-02-08T08:12:33.551Z,50.83
2018-02-08T08:15:02.043Z,50.16
2018-02-08T08:17:30.446Z,49.46
2018-02-08T08:19:58.978Z,50.08
2018-02-08T08:22:27.459Z,49.36
2018-02-08T08:24:55.944Z,50.63
2018-02-08T08:27:24.365Z,51.67
2018-02-08T08:29:52.786Z,49.59
2018-02-08T08:32:21.188Z,48.92
2018-02-08T08:34:50.074Z,51.45
2018-02-08T08:37:18.559Z,51.09
2018-02-08T08:39:46.950Z,51.08
2018-02-08T08:42:15.390Z,49.55
2018-02-08T08:44:43.808Z,49.07
2018-02-08T08:47:12.197Z,47.45
2018-02-08T08:49:40.607Z,47.28
2018-02-08T08:52:09.036Z,45.83
2018-02-08T08:54:37.572Z,44.89
2018-02-08T08:57:06.020Z,42.62
2018-02-08T08:59:34.423Z,42.46
2018-02-08T09:02:02.829Z,42.11
2018-02-08T09:04:31.244Z,41.62
2018-02-08T09:06:59.702Z,42.73
2018-02-08T09:09:28.190Z,44.12
2018-02-08T09:11:56.620Z,44.14
2018-02-08T09:14:25.021Z,42.85
2018-02-08T09:16:53.410Z,45.15
2018-02-08T09:19:21.964Z,44.17
2018-02-08T09:21:50.371Z,42.34
2018-02-08T09:24:18.840Z,43.81
2018-02-08T09:26:47.270Z,39.95
2018-02-08T09:29:15.754Z,37.26
2018-02-08T09:31:44.177Z,38.81
2018-02-08T09:34:12.586Z,37.25
2018-02-08T09:36:41.011Z,33.25
2018-02-08T09:39:09.425Z,35.60
2018-02-08T09:41:37.878Z,35.39
2018-02-08T09:44:06.294Z,35.32
2018-02-08T09:46:34.769Z,37.41
2018-02-08T09:49:03.169Z,36.25
2018-02-08T09:51:31.586Z,37.47
2018-02-08T09:54:00.019Z,35.54
2018-02-08T09:56:28.421Z,31.34
2018-02-08T09:58:57.253Z,28.60
2018-02-08T10:01:25.666Z,29.63
2018-02-08T10:03:54.075Z,28.65
2018-02-08T10:06:22.504Z,30.55
2018-02-08T10:08:50.962Z,29.00
2018-02-08T10:11:19.424Z,27.99
2018-02-08T10:13:47.822Z,26.04
2018-02-08T10:16:16.233Z,28.08
2018-02-08T10:18:44.651Z,30.00
2018-02-08T10:21:13.094Z,31.80
2018-02-08T10:23:41.561Z,32.64
2018-02-08T10:26:09.983Z,33.55
2018-02-08T10:28:38.434Z,32.68
2018-02-08T10:31:06.835Z,33.21
2018-02-08T10:33:35.268Z,32.92
2018-02-08T10:36:03.811Z,32.86
2018-02-08T10:38:32.216Z,28.39
2018-02-08T10:41:00.656Z,29.51
2018-02-08T10:43:29.055Z,29.55
2018-02-08T10:45:57.479Z,29.04
2018-02-08T10:48:26.055Z,29.61
2018-02-08T10:50:54.461Z,30.17
2018-02-08T10:53:22.889Z,31.77
2018-02-08T10:55:51.306Z,33.69
2018-02-08T10:58:19.725Z,34.71
2018-02-08T11:00:48.193Z,36.48
2018-02-08T11:03:16.587Z,36.78
2018-02-08T11:05:45.011Z,36.64
2018-02-08T11:08:13.415Z,36.82
2018-02-08T11:10:41.822Z,37.31
2018-02-08T11:13:10.297Z,36.28
2018-02-08T11:15:38.701Z,35.63
2018-02-08T11:18:07.108Z,37.01
2018-02-08T11:20:35.532Z,38.58
2018-02-08T11:23:03.940Z,40.62
2018-02-08T11:25:32.419Z,41.90
2018-02-08T11:28:00.896Z,41.32
2018-02-08T11:30:29.298Z,41.06
2018-02-08T11:32:57.719Z,40.50
2018-02-08T11:35:26.140Z,40.61
2018-02-08T11:37:54.641Z,41.17
2018-02-08T11:40:23.049Z,40.43
2018-02-08T11:42:51.474Z,40.15
2018-02-08T11:45:19.881Z,40.24
2018-02-08T11:47:48.306Z,39.24
2018-02-08T11:50:16.842Z,40.37
2018-02-08T11:52:45.336Z,41.73
2018-02-08T11:55:13.778Z,40.23
2018-02-08T11:57:42.170Z,41.42
2018-02-08T12:00:10.629Z,42.01
2018-02-08T12:02:39.163Z,41.66
2018-02-08T12:05:07.571Z,41.53
2018-02-08T12:07:35.987Z,40.48
2018-02-08T12:10:04.423Z,39.04
2018-02-08T12:12:32.861Z,38.40
2018-02-08T12:15:01.381Z,36.72
2018-02-08T12:17:29.843Z,34.74
2018-02-08T12:19:58.258Z,33.02
2018-02-08T12:22:26.675Z,32.64
2018-02-08T12:24:55.157Z,32.22
2018-02-08T12:27:23.710Z,32.18
2018-02-08T12:29:52.107Z,32.02
2018-02-08T12:32:20.553Z,32.33
2018-02-08T12:34:48.952Z,33.20
2018-02-08T12:37:17.374Z,33.39
2018-02-08T12:39:45.870Z,34.25
2018-02-08T12:42:14.290Z,34.10
2018-02-08T12:44:42.709Z,34.14
2018-02-08T12:47:11.129Z,32.67
2018-02-08T12:49:39.542Z,32.10
2018-02-08T12:52:08.040Z,29.47
2018-02-08T12:54:36.461Z,27.96
2018-02-08T12:57:04.911Z,26.99
2018-02-08T12:59:33.400Z,26.67
2018-02-08T13:02:01.846Z,27.31
2018-02-08T13:04:30.320Z,26.15
2018-02-08T13:06:58.720Z,26.39
2018-02-08T13:09:27.141Z,25.86
2018-02-08T13:11:55.598Z,28.55
2018-02-08T13:14:24.007Z,27.57
2018-02-08T13:16:52.487Z,28.85
2018-02-08T13:19:20.895Z,30.14
2018-02-08T13:21:49.313Z,29.95
2018-02-08T13:24:17.736Z,29.42
2018-02-08T13:26:46.333Z,27.68
2018-02-08T13:29:15.342Z,28.07
2018-02-08T13:31:45.261Z,26.68
2018-02-08T13:34:13.829Z,30.26
2018-02-08T13:36:42.862Z,30.92
2018-02-08T13:42:20.631Z,33.32
2018-02-08T13:44:49.034Z,32.83
2018-02-08T13:47:34.150Z,33.77
2018-02-08T13:53:35.487Z,34.24
2018-02-08T13:56:04.331Z,35.56
2018-02-08T14:01:40.729Z,36.17
2018-02-08T14:04:09.942Z,36.49
2018-02-08T14:06:38.545Z,36.56
2018-02-08T14:09:06.955Z,38.01
2018-02-08T14:11:35.422Z,37.37
2018-02-08T14:14:03.819Z,38.69
2018-02-08T14:16:32.264Z,37.41
2018-02-08T14:19:00.770Z,35.60
2018-02-08T14:21:29.187Z,37.16
2018-02-08T14:23:57.677Z,37.96
2018-02-08T14:26:26.162Z,37.65
2018-02-08T14:28:54.560Z,38.02
2018-02-08T14:31:23.339Z,38.83
2018-02-08T14:33:51.716Z,38.94
2018-02-08T14:36:20.166Z,38.88
2018-02-08T14:38:49.470Z,38.26
2018-02-08T14:41:17.896Z,38.56
2018-02-08T14:43:46.429Z,38.11
2018-02-08T14:46:14.852Z,38.51
2018-02-08T14:48:43.359Z,38.40
2018-02-08T14:51:11.788Z,39.31
2018-02-08T14:53:40.198Z,39.64
2018-02-08T14:56:08.753Z,39.42
2018-02-08T14:58:37.273Z,39.67
2018-02-08T15:01:05.670Z,41.11
2018-02-08T15:03:34.134Z,40.74
2018-02-08T15:06:05.051Z,40.39
2018-02-08T15:08:33.549Z,40.91
2018-02-08T15:11:01.963Z,41.46
2018-02-08T15:13:32.195Z,42.14
2018-02-08T15:16:00.609Z,42.97
2018-02-08T15:18:29.038Z,43.24
2018-02-08T15:20:57.885Z,44.35
2018-02-08T15:23:26.304Z,44.38
2018-02-08T15:25:54.796Z,44.46
2018-02-08T15:28:23.182Z,44.40
2018-02-08T15:30:51.603Z,44.42
2018-02-08T15:33:20.085Z,44.42
2018-02-08T15:35:48.602Z,44.63
2018-02-08T15:38:17.041Z,44.21
2018-02-08T15:40:45.593Z,44.74
2018-02-08T15:43:14.382Z,45.63
2018-02-08T15:45:44.869Z,44.85
2018-02-08T15:48:13.252Z,46.11
2018-02-08T15:50:41.812Z,45.44
2018-02-08T15:53:10.335Z,46.21
2018-02-08T15:55:38.753Z,46.57
2018-02-08T15:58:07.231Z,46.79
2018-02-08T16:00:36.414Z,46.00
2018-02-08T16:03:05.072Z,46.86
2018-02-08T16:05:33.459Z,47.28
2018-02-08T16:08:01.845Z,47.65
2018-02-08T16:10:30.253Z,46.92
2018-02-08T16:12:59.072Z,47.48
2018-02-08T16:15:27.649Z,46.88
2018-02-08T16:17:56.092Z,48.36
2018-02-08T16:20:24.542Z,48.98
2018-02-08T16:22:52.954Z,48.11
2018-02-08T16:25:21.363Z,48.32
2018-02-08T16:27:50.777Z,50.16
2018-02-08T16:30:19.401Z,49.65
2018-02-08T16:32:47.820Z,50.55
2018-02-08T16:35:16.381Z,49.71
2018-02-08T16:37:44.831Z,50.95
2018-02-08T16:40:13.307Z,51.44
2018-02-08T16:42:41.724Z,50.65
2018-02-08T16:45:10.141Z,51.14
2018-02-08T16:47:38.531Z,51.84
2018-02-08T16:50:07.126Z,50.23
2018-02-08T16:52:35.676Z,51.28
2018-02-08T16:55:04.120Z,51.83
2018-02-08T16:57:32.671Z,52.55
2018-02-08T17:00:01.060Z,51.40
2018-02-08T17:02:29.462Z,51.18
2018-02-08T17:04:58.349Z,51.97
2018-02-08T17:07:26.875Z,51.95
2018-02-08T17:09:55.287Z,51.75
2018-02-08T17:12:23.792Z,51.91
2018-02-08T17:14:52.183Z,52.20
2018-02-08T17:17:20.672Z,52.28
2018-02-08T17:19:49.061Z,51.96
2018-02-08T17:22:17.587Z,50.62
2018-02-08T17:24:46.164Z,52.11
2018-02-08T17:27:15.012Z,52.78
2018-02-08T17:29:43.787Z,53.32
2018-02-08T17:32:12.295Z,52.16
2018-02-08T17:34:40.724Z,52.79
2018-02-08T17:37:09.147Z,52.32
2018-02-08T17:39:37.590Z,53.27
2018-02-08T17:42:06.152Z,52.68
2018-02-08T17:44:34.577Z,52.82
2018-02-08T17:47:02.975Z,53.40
2018-02-08T17:49:31.496Z,53.44
2018-02-08T17:52:00.018Z,53.04
2018-02-08T17:54:29.295Z,53.39
2018-02-08T17:56:57.706Z,53.00
2018-02-08T17:59:26.179Z,52.78
2018-02-08T18:01:54.579Z,54.94
2018-02-08T18:04:23.013Z,54.42
2018-02-08T18:06:52.350Z,53.41
2018-02-08T18:09:20.899Z,54.07
2018-02-08T18:11:49.315Z,52.95
2018-02-08T18:16:52.490Z,53.29
2018-02-08T18:19:21.020Z,53.71
2018-02-08T18:21:49.498Z,54.90
2018-02-08T18:24:17.990Z,55.20
2018-02-08T18:26:46.490Z,55.60
2018-02-08T18:29:14.875Z,56.68
2018-02-08T18:31:43.411Z,55.75
2018-02-08T18:34:11.828Z,55.03
2018-02-08T18:36:40.223Z,54.63
2018-02-08T18:39:08.707Z,54.81
2018-02-08T18:41:38.058Z,56.38
2018-02-08T18:44:06.546Z,55.38
2018-02-08T18:46:34.958Z,54.85
2018-02-08T18:49:03.459Z,55.44
2018-02-08T18:51:31.849Z,55.41
2018-02-08T18:54:00.280Z,55.11
2018-02-08T18:56:28.780Z,55.06
2018-02-08T18:58:58.248Z,55.29
2018-02-08T19:01:26.715Z,54.83
2018-02-08T19:03:55.162Z,55.36
2018-02-08T19:06:23.529Z,54.48
2018-02-08T19:08:51.956Z,53.93
2018-02-08T19:11:20.437Z,54.48
2018-02-08T19:13:48.927Z,54.98
2018-02-08T19:16:17.459Z,54.07
2018-02-08T19:18:45.858Z,53.59
2018-02-08T19:21:14.246Z,55.92
2018-02-08T19:23:42.852Z,57.43
2018-02-08T19:26:11.309Z,55.70
2018-02-08T19:28:40.461Z,54.72
2018-02-08T19:31:08.950Z,55.89
2018-02-08T19:33:37.326Z,56.31
2018-02-08T19:36:05.746Z,56.13
2018-02-08T19:38:34.205Z,55.88
2018-02-08T19:41:02.666Z,55.66
2018-02-08T19:43:31.087Z,56.51
2018-02-08T19:45:59.554Z,56.76
2018-02-08T19:48:27.965Z,56.66
2018-02-08T19:50:56.455Z,55.75
2018-02-08T19:53:24.872Z,55.47
2018-02-08T19:55:53.425Z,55.52
2018-02-08T19:58:21.879Z,55.24
2018-02-08T20:00:50.288Z,54.93
2018-02-08T20:03:18.769Z,54.17
2018-02-08T20:05:47.165Z,54.31
2018-02-08T20:08:15.843Z,53.87
2018-02-08T20:10:44.231Z,55.10
2018-02-08T20:13:13.436Z,55.29
2018-02-08T20:15:41.948Z,54.41
2018-02-08T20:18:10.410Z,56.56
2018-02-08T20:20:38.943Z,57.79
2018-02-08T20:23:07.361Z,56.09
2018-02-08T20:25:41.883Z,54.53
2018-02-08T20:28:10.431Z,53.62
2018-02-08T20:30:38.848Z,56.00
2018-02-08T20:33:07.288Z,55.06
2018-02-08T20:35:35.755Z,54.07
2018-02-08T20:38:04.247Z,53.40
2018-02-08T20:40:32.654Z,53.47
2018-02-08T20:43:07.578Z,54.81
2018-02-08T20:45:35.982Z,54.79
2018-02-08T20:48:04.396Z,53.68
2018-02-08T20:50:32.852Z,54.16
2018-02-08T20:53:01.276Z,54.37
2018-02-08T20:55:29.779Z,53.85
2018-02-08T20:57:58.206Z,54.62
2018-02-08T21:00:26.732Z,53.86
2018-02-08T21:02:55.131Z,54.02
2018-02-08T21:05:23.579Z,56.28
2018-02-08T21:07:52.040Z,55.03
2018-02-08T21:10:20.425Z,54.41
2018-02-08T21:12:48.936Z,54.22
2018-02-08T21:15:17.412Z,56.03
2018-02-08T21:17:45.882Z,54.95
2018-02-08T21:20:14.362Z,55.15
2018-02-08T21:22:42.789Z,55.21
2018-02-08T21:25:11.303Z,54.75
2018-02-08T21:27:39.719Z,53.57
2018-02-08T21:30:08.108Z,52.77
2018-02-08T21:32:36.653Z,54.14
2018-02-08T21:35:05.161Z,54.36
2018-02-08T21:37:33.882Z,53.57
2018-02-08T21:40:02.360Z,52.96
2018-02-08T21:42:30.884Z,52.92
2018-02-08T21:44:59.330Z,53.38
2018-02-08T21:47:27.758Z,52.87
2018-02-08T21:49:56.232Z,52.94
2018-02-08T21:52:24.704Z,53.02
2018-02-08T21:54:53.715Z,53.65
2018-02-08T21:57:22.165Z,54.31
2018-02-08T21:59:50.639Z,54.24
2018-02-08T22:02:19.170Z,53.53
2018-02-08T22:04:47.681Z,54.00
2018-02-08T22:07:16.098Z,54.14
2018-02-08T22:09:44.698Z,53.42
2018-02-08T22:12:13.957Z,54.77
2018-02-08T22:14:42.435Z,53.49
2018-02-08T22:17:10.965Z,53.54
2018-02-08T22:19:39.381Z,53.61
2018-02-08T22:22:07.804Z,53.26
2018-02-08T22:24:36.206Z,53.90
2018-02-08T22:27:04.687Z,53.31
2018-02-08T22:29:33.104Z,53.69
2018-02-08T22:32:01.667Z,53.65
2018-02-08T22:34:30.035Z,53.04
2018-02-08T22:36:58.480Z,52.82
2018-02-08T22:39:26.864Z,53.49
2018-02-08T22:41:55.378Z,53.54
2018-02-08T22:44:23.794Z,53.99
2018-02-08T22:46:52.228Z,53.22
2018-02-08T22:49:20.716Z,52.53
2018-02-08T22:51:49.143Z,53.28
2018-02-08T22:54:17.608Z,54.06
2018-02-08T22:56:46.028Z,54.45
2018-02-08T22:59:14.462Z,54.86
2018-02-08T23:01:43.071Z,53.55
2018-02-08T23:04:11.484Z,54.30
2018-02-08T23:06:40.028Z,53.75
2018-02-08T23:09:08.548Z,53.66
2018-02-08T23:11:36.966Z,53.58
2018-02-08T23:14:05.527Z,52.94
2018-02-08T23:16:34.018Z,52.63
2018-02-08T23:19:02.491Z,52.99
2018-02-08T23:21:30.956Z,53.17
2018-02-08T23:23:59.381Z,53.05
2018-02-08T23:26:27.784Z,53.35
2018-02-08T23:28:56.208Z,53.23
2018-02-08T23:31:24.712Z,52.71
2018-02-08T23:33:53.106Z,52.73
2018-02-08T23:36:21.581Z,53.41
2018-02-08T23:38:50.074Z,52.94
2018-02-08T23:41:18.484Z,52.36
2018-02-08T23:43:46.931Z,52.60
2018-02-08T23:46:15.329Z,52.30
2018-02-08T23:48:43.834Z,52.67
2018-02-08T23:51:12.257Z,52.26
2018-02-08T23:53:40.650Z,52.49
2018-02-08T23:56:09.079Z,53.25
2018-02-08T23:58:37.478Z,53.96
